Time;durP1;ratioP1;P1;durP2;ratioP2;P2;SDS_P1;SDS_P2;PMS_P1;PMS_P2;Temp;Humidity;BMP_temperature;BMP_pressure;BME280_temperature;BME280_humidity;BME280_pressure;Samples;Min_cycle;Max_cycle;Signal;HPM_P1;HPM_P2
2021/01/05 00:01:40;;;;;;;29.85;14.82;;;;;;;-0.17;89.49;96738.22;5003069;28;20033;-79
2021/01/05 00:04:06;;;;;;;33.05;16.55;;;;;;;-0.14;89.68;96730.19;5023135;28;20049;-79
2021/01/05 00:06:34;;;;;;;31.88;14.98;;;;;;;-0.14;89.37;96743.75;5007995;28;20380;-79
2021/01/05 00:08:59;;;;;;;35.25;16.02;;;;;;;-0.05;89.15;96739.31;5024548;28;20417;-79
2021/01/05 00:11:26;;;;;;;32.88;14.77;;;;;;;-0.16;89.47;96727.81;5019017;28;20041;-80
2021/01/05 00:13:51;;;;;;;32.65;15.30;;;;;;;-0.18;89.50;96722.09;5031433;28;20638;-79
2021/01/05 00:16:22;;;;;;;29.40;15.30;;;;;;;-0.11;89.05;96729.81;5027883;28;20033;-80
2021/01/05 00:18:48;;;;;;;28.08;14.10;;;;;;;-0.07;89.67;96733.56;5015201;28;20048;-79
2021/01/05 00:21:14;;;;;;;34.28;15.98;;;;;;;-0.17;89.76;96736.47;5009184;28;20033;-80
2021/01/05 00:23:39;;;;;;;29.05;14.55;;;;;;;-0.10;89.80;96731.41;5036410;28;20396;-79
2021/01/05 00:26:06;;;;;;;30.00;15.10;;;;;;;-0.11;89.51;96740.81;5049130;28;20040;-79
2021/01/05 00:28:31;;;;;;;27.30;13.73;;;;;;;-0.05;89.32;96731.63;4996364;28;20036;-79
2021/01/05 00:30:57;;;;;;;28.73;14.77;;;;;;;-0.21;89.41;96740.38;5026083;28;20706;-79
2021/01/05 00:33:23;;;;;;;29.88;15.05;;;;;;;-0.25;89.44;96734.84;5036225;28;20041;-79
2021/01/05 00:35:49;;;;;;;30.48;15.90;;;;;;;-0.22;89.38;96733.69;4999145;28;20497;-80
2021/01/05 00:38:14;;;;;;;27.65;14.35;;;;;;;-0.06;89.44;96743.63;4999196;28;20029;-80
2021/01/05 00:40:40;;;;;;;30.65;15.93;;;;;;;-0.15;89.20;96728.63;5024159;28;20094;-79
2021/01/05 00:43:06;;;;;;;29.52;14.43;;;;;;;-0.04;89.54;96740.88;5050085;28;20056;-79
2021/01/05 00:45:35;;;;;;;26.63;13.75;;;;;;;-0.14;88.97;96730.19;5043445;28;20037;-79
2021/01/05 00:48:01;;;;;;;25.13;13.27;;;;;;;-0.15;89.28;96736.28;5006396;28;20033;-79
2021/01/05 00:50:27;;;;;;;28.95;14.80;;;;;;;-0.04;89.18;96743.44;5013424;28;20415;-79
2021/01/05 00:52:55;;;;;;;31.65;15.60;;;;;;;-0.21;89.44;96730.94;5013874;28;20029;-80
2021/01/05 00:55:21;;;;;;;30.50;14.57;;;;;;;-0.18;89.44;96731.53;5028191;28;20105;-79
2021/01/05 00:57:48;;;;;;;30.52;14.15;;;;;;;-0.02;89.34;96738.91;5042155;28;20041;-79
2021/01/05 01:00:18;;;;;;;25.05;14.02;;;;;;;-0.08;89.20;96739.69;5027353;28;20029;-79
2021/01/05 01:02:44;;;;;;;28.75;14.52;;;;;;;-0.11;89.11;96745.16;5011132;28;20111;-80
2021/01/05 01:05:10;;;;;;;27.00;14.93;;;;;;;-0.10;89.37;96736.53;5000508;28;20638;-79
2021/01/05 01:07:36;;;;;;;29.83;14.95;;;;;;;-0.07;89.37;96743.81;4992249;28;20033;-80
2021/01/05 01:10:03;;;;;;;34.05;14.73;;;;;;;-0.09;89.30;96745.75;5005127;28;20088;-79
2021/01/05 01:12:29;;;;;;;29.67;15.18;;;;;;;0.02;89.13;96745.25;5011985;28;20021;-79
2021/01/05 01:14:55;;;;;;;28.02;14.25;;;;;;;-0.08;88.98;96739.69;5023344;28;20469;-79
2021/01/05 01:17:22;;;;;;;30.20;15.27;;;;;;;-0.09;89.00;96735.53;4993597;28;20044;-79
2021/01/05 01:19:49;;;;;;;27.40;13.70;;;;;;;-0.06;88.70;96745.41;5011503;28;20368;-79
2021/01/05 01:22:20;;;;;;;29.10;15.63;;;;;;;-0.08;88.92;96739.69;5011510;28;20022;-79
2021/01/05 01:24:47;;;;;;;29.83;14.18;;;;;;;-0.17;89.00;96735.66;5012459;28;20107;-80
2021/01/05 01:27:12;;;;;;;29.58;14.55;;;;;;;-0.12;89.18;96734.16;4997499;28;20030;-79
2021/01/05 01:29:38;;;;;;;29.40;14.88;;;;;;;-0.14;89.15;96738.63;4998998;28;20480;-80
2021/01/05 01:32:04;;;;;;;27.85;14.77;;;;;;;-0.22;89.34;96734.47;4999261;28;20134;-79
2021/01/05 01:34:29;;;;;;;26.50;13.90;;;;;;;-0.24;89.41;96746.66;4994350;28;20038;-79
2021/01/05 01:37:04;;;;;;;26.23;13.48;;;;;;;-0.30;89.83;96744.06;4994574;28;20063;-80
2021/01/05 01:39:30;;;;;;;24.25;13.00;;;;;;;-0.17;89.65;96735.66;4982389;28;20377;-80
2021/01/05 01:41:57;;;;;;;27.98;13.60;;;;;;;-0.15;89.71;96734.50;4999065;28;20191;-80
2021/01/05 01:44:27;;;;;;;28.48;14.05;;;;;;;-0.16;89.35;96738.03;4998843;28;20698;-80
2021/01/05 01:46:56;;;;;;;26.15;13.27;;;;;;;-0.22;89.22;96738.81;4998214;28;20040;-80
2021/01/05 01:49:22;;;;;;;28.10;14.23;;;;;;;-0.10;89.84;96750.09;5015032;28;20029;-79
2021/01/05 01:51:50;;;;;;;29.17;14.20;;;;;;;-0.18;90.02;96757.13;4999803;28;20037;-80
2021/01/05 01:54:48;;;;;;;26.23;13.32;;;;;;;-0.30;89.57;96755.06;5013553;28;20026;-79
2021/01/05 01:57:26;;;;;;;29.85;13.85;;;;;;;-0.17;90.02;96745.91;5012157;28;20108;-79
2021/01/05 02:00:00;;;;;;;28.17;13.60;;;;;;;-0.14;89.54;96755.75;5018797;28;20144;-78
2021/01/05 02:03:09;;;;;;;28.15;13.07;;;;;;;-0.15;89.82;96749.88;5014745;28;20071;-78
2021/01/05 02:05:47;;;;;;;26.98;13.07;;;;;;;-0.15;89.78;96747.31;5022963;23;20052;-82
2021/01/05 02:08:34;;;;;;;27.63;13.13;;;;;;;-0.26;89.98;96758.84;5033630;28;20032;-83
2021/01/05 02:11:24;;;;;;;26.33;12.80;;;;;;;-0.33;89.67;96752.88;5068538;28;20028;-83
2021/01/05 02:13:56;;;;;;;27.27;13.50;;;;;;;-0.18;89.74;96755.34;5033165;28;20474;-83
2021/01/05 02:16:28;;;;;;;26.25;13.15;;;;;;;-0.22;89.66;96754.16;5049319;28;20466;-83
2021/01/05 02:18:57;;;;;;;26.38;13.18;;;;;;;-0.16;89.61;96753.38;5015178;28;20029;-82
2021/01/05 02:21:28;;;;;;;28.40;13.77;;;;;;;-0.18;90.03;96759.69;5050630;28;20055;-83
2021/01/05 02:24:12;;;;;;;25.08;12.45;;;;;;;-0.21;89.69;96753.97;5024558;28;20025;-83
2021/01/05 02:27:08;;;;;;;27.80;13.27;;;;;;;-0.22;89.51;96760.03;5066601;28;20039;-82
2021/01/05 02:29:41;;;;;;;28.27;12.80;;;;;;;-0.27;89.82;96757.25;5035098;28;20040;-83
2021/01/05 02:32:43;;;;;;;30.33;13.32;;;;;;;-0.33;89.99;96747.75;5051044;28;20031;-82
2021/01/05 02:35:18;;;;;;;27.63;13.35;;;;;;;-0.34;90.34;96753.88;5004904;28;20068;-82
2021/01/05 02:38:25;;;;;;;26.80;12.38;;;;;;;-0.33;90.29;96747.75;5028796;28;20064;-82
2021/01/05 02:41:09;;;;;;;27.20;12.23;;;;;;;-0.23;89.88;96747.44;5027732;28;20048;-83
2021/01/05 02:43:51;;;;;;;27.13;11.95;;;;;;;-0.22;89.65;96742.13;5034498;28;20044;-82
2021/01/05 02:46:38;;;;;;;31.10;12.85;;;;;;;-0.28;89.81;96742.88;5049981;28;20024;-83
2021/01/05 02:49:25;;;;;;;29.33;12.65;;;;;;;-0.31;90.01;96745.81;5051236;28;20020;-83
2021/01/05 02:52:27;;;;;;;24.23;12.68;;;;;;;-0.30;89.74;96749.94;5050798;28;20036;-83
2021/01/05 02:55:32;;;;;;;26.85;12.20;;;;;;;-0.28;90.39;96750.53;5012531;28;20037;-83
2021/01/05 02:58:16;;;;;;;26.23;12.13;;;;;;;-0.16;89.27;96747.50;5051488;28;20036;-82
2021/01/05 03:00:48;;;;;;;30.15;13.57;;;;;;;-0.13;89.70;96749.69;5033801;28;20075;-83
2021/01/05 03:03:31;;;;;;;26.60;12.02;;;;;;;-0.29;89.92;96748.97;5069154;28;20028;-82
2021/01/05 03:06:22;;;;;;;23.65;11.55;;;;;;;-0.25;89.69;96750.19;5043346;28;20498;-83
2021/01/05 03:08:57;;;;;;;25.60;12.35;;;;;;;-0.35;90.61;96749.72;5052605;28;20036;-82
2021/01/05 03:11:28;;;;;;;27.50;13.07;;;;;;;-0.41;90.14;96745.34;5056871;28;20078;-82
2021/01/05 03:14:02;;;;;;;24.15;13.10;;;;;;;-0.31;90.42;96745.00;5044699;28;20028;-83
2021/01/05 03:16:32;;;;;;;27.07;14.23;;;;;;;-0.33;89.85;96746.97;5033886;28;20136;-82
2021/01/05 03:19:04;;;;;;;26.80;12.93;;;;;;;-0.20;89.98;96749.63;5057579;28;20027;-82
2021/01/05 03:21:39;;;;;;;23.30;11.77;;;;;;;-0.14;89.48;96746.31;5050622;28;20055;-82
2021/01/05 03:24:05;;;;;;;;;;;;;;;-0.23;89.66;96757.69;5024407;28;20479;-83
2021/01/05 03:26:39;;;;;;;25.55;12.18;;;;;;;-0.21;89.53;96745.47;5044787;28;19908;-81
2021/01/05 03:29:05;;;;;;;26.23;12.20;;;;;;;-0.25;90.12;96745.06;5056765;28;20123;-82
2021/01/05 03:32:02;;;;;;;24.13;12.20;;;;;;;-0.22;89.94;96746.47;5056726;28;20130;-83
2021/01/05 03:34:28;;;;;;;20.65;11.63;;;;;;;-0.17;89.69;96748.44;5058349;28;20338;-83
2021/01/05 03:36:54;;;;;;;28.02;13.80;;;;;;;-0.23;90.11;96742.31;5059569;28;20036;-83
2021/01/05 03:39:19;;;;;;;24.50;12.15;;;;;;;-0.32;90.36;96738.34;5041938;28;20465;-82
2021/01/05 03:41:45;;;;;;;25.58;13.40;;;;;;;-0.33;90.33;96736.75;5035888;28;20402;-83
2021/01/05 03:44:10;;;;;;;30.10;13.75;;;;;;;-0.20;90.22;96740.19;5049342;28;20028;-82
2021/01/05 03:46:36;;;;;;;27.60;13.40;;;;;;;-0.18;90.26;96746.91;5044903;28;20364;-83
2021/01/05 03:49:03;;;;;;;24.92;12.45;;;;;;;-0.31;89.93;96750.13;5030725;28;20472;-82
2021/01/05 03:51:28;;;;;;;26.23;13.45;;;;;;;-0.20;89.81;96749.63;5045860;28;20046;-82
2021/01/05 03:53:54;;;;;;;27.77;12.68;;;;;;;-0.25;89.93;96755.31;5027234;28;20036;-83
2021/01/05 03:56:21;;;;;;;26.25;12.43;;;;;;;-0.18;89.80;96754.56;5063012;28;20116;-83
2021/01/05 03:58:46;;;;;;;25.98;13.30;;;;;;;-0.31;90.54;96747.56;5046860;28;20108;-83
2021/01/05 04:01:12;;;;;;;28.30;11.77;;;;;;;-0.25;89.98;96755.31;5058181;28;20132;-82
2021/01/05 04:03:40;;;;;;;28.08;12.00;;;;;;;-0.16;90.03;96744.94;5053303;28;20329;-81
2021/01/05 04:06:06;;;;;;;25.83;11.93;;;;;;;-0.28;89.57;96749.75;5040036;28;20063;-83
2021/01/05 04:08:32;;;;;;;22.92;11.38;;;;;;;-0.18;90.05;96746.91;5046561;28;20036;-83
2021/01/05 04:10:58;;;;;;;27.42;13.50;;;;;;;-0.25;90.26;96746.84;5052992;28;20039;-83
2021/01/05 04:13:23;;;;;;;24.52;11.88;;;;;;;-0.22;90.03;96749.81;5058216;28;20581;-83
2021/01/05 04:15:49;;;;;;;27.52;12.75;;;;;;;-0.29;90.07;96743.06;5052878;28;20032;-83
2021/01/05 04:18:14;;;;;;;28.05;12.48;;;;;;;-0.18;89.87;96752.00;5036445;28;20111;-82
2021/01/05 04:20:40;;;;;;;27.85;13.32;;;;;;;-0.35;90.36;96747.16;5046959;28;20032;-83
2021/01/05 04:23:06;;;;;;;28.65;13.27;;;;;;;-0.36;90.41;96743.03;5040218;28;20045;-83
2021/01/05 04:25:32;;;;;;;27.75;14.05;;;;;;;-0.39;90.65;96751.06;5053766;28;20302;-82
2021/01/05 04:27:58;;;;;;;26.45;12.43;;;;;;;-0.26;90.21;96753.72;5023824;28;20104;-83
2021/01/05 04:30:29;;;;;;;28.40;13.35;;;;;;;-0.30;90.04;96754.28;5082438;28;20397;-84
2021/01/05 04:32:57;;;;;;;27.92;13.02;;;;;;;-0.22;89.46;96756.72;5052650;28;20063;-83
2021/01/05 04:35:24;;;;;;;24.50;12.05;;;;;;;-0.23;89.88;96761.00;5064562;28;20381;-82
2021/01/05 04:37:50;;;;;;;25.17;12.55;;;;;;;-0.26;89.78;96768.28;5037651;28;20126;-83
2021/01/05 04:40:22;;;;;;;31.42;14.38;;;;;;;-0.38;90.47;96760.31;5048342;28;20052;-82
2021/01/05 04:42:48;;;;;;;29.42;13.02;;;;;;;-0.32;90.43;96764.69;5058110;28;20041;-82
2021/01/05 04:45:22;;;;;;;29.63;12.25;;;;;;;-0.45;90.01;96760.25;5049054;28;20036;-83
2021/01/05 04:47:57;;;;;;;27.23;12.50;;;;;;;-0.39;90.56;96774.88;5054254;28;20020;-82
2021/01/05 04:50:28;;;;;;;30.77;12.23;;;;;;;-0.39;90.64;96758.75;5033277;28;20106;-83
2021/01/05 04:52:57;;;;;;;23.48;11.35;;;;;;;-0.38;90.28;96771.34;5070355;28;20031;-83
2021/01/05 04:55:44;;;;;;;25.52;11.70;;;;;;;-0.39;90.21;96762.09;5055789;28;20490;-82
2021/01/05 04:58:26;;;;;;;24.08;11.40;;;;;;;-0.39;90.20;96766.41;5053941;28;20090;-82
2021/01/05 05:00:53;;;;;;;25.63;11.60;;;;;;;-0.30;90.12;96762.75;5052736;28;20039;-82
2021/01/05 05:03:47;;;;;;;28.27;12.23;;;;;;;-0.35;89.37;96772.72;5063967;28;20032;-83
2021/01/05 05:06:31;;;;;;;26.30;12.00;;;;;;;-0.38;90.36;96761.13;5032175;28;20090;-82
2021/01/05 05:09:09;;;;;;;26.25;10.95;;;;;;;-0.36;90.06;96760.94;5088491;28;20458;-82
2021/01/05 05:11:50;;;;;;;28.70;12.93;;;;;;;-0.29;89.69;96763.53;5027740;28;20568;-82
2021/01/05 05:14:23;;;;;;;26.38;12.18;;;;;;;-0.35;90.12;96761.72;5064885;28;20020;-82
2021/01/05 05:16:57;;;;;;;27.13;12.88;;;;;;;-0.32;89.94;96761.34;5036917;28;20024;-82
2021/01/05 05:19:40;;;;;;;29.08;13.27;;;;;;;-0.34;89.95;96763.28;5039340;28;20036;-82
2021/01/05 05:22:14;;;;;;;29.08;12.73;;;;;;;-0.28;90.55;96776.13;5070120;28;20028;-82
2021/01/05 05:25:07;;;;;;;26.52;11.82;;;;;;;-0.23;89.52;96768.69;5047357;28;20021;-82
2021/01/05 05:27:44;;;;;;;27.77;12.20;;;;;;;-0.37;90.38;96782.38;5048978;28;20116;-82
2021/01/05 05:30:13;;;;;;;26.17;11.73;;;;;;;-0.29;89.77;96776.31;5049433;28;20534;-83
2021/01/05 05:32:45;;;;;;;31.13;12.98;;;;;;;-0.29;89.89;96784.78;5042113;28;20502;-83
2021/01/05 05:35:14;;;;;;;26.25;12.63;;;;;;;-0.22;89.86;96787.41;5059081;28;20107;-83
2021/01/05 05:37:55;;;;;;;29.85;13.52;;;;;;;-0.18;89.33;96791.16;5071422;28;20499;-83
2021/01/05 05:40:49;;;;;;;30.35;13.50;;;;;;;-0.36;90.24;96789.06;5051020;28;20057;-82
2021/01/05 05:43:29;;;;;;;28.25;13.15;;;;;;;-0.36;90.25;96791.63;5051442;28;20020;-82
2021/01/05 05:46:00;;;;;;;30.60;12.85;;;;;;;-0.25;90.14;96795.44;5044755;28;20540;-83
2021/01/05 05:48:33;;;;;;;26.98;13.95;;;;;;;-0.18;89.38;96788.59;5056661;28;20020;-83
2021/01/05 05:51:05;;;;;;;25.20;11.40;;;;;;;-0.17;89.44;96794.50;5047975;28;20108;-82
2021/01/05 05:53:39;;;;;;;30.48;13.18;;;;;;;-0.24;89.43;96794.44;5056376;28;20039;-83
2021/01/05 05:56:06;;;;;;;23.85;11.13;;;;;;;-0.09;89.41;96790.03;5063394;28;20028;-82
2021/01/05 05:58:35;;;;;;;29.33;11.85;;;;;;;-0.34;89.48;96786.31;5051149;28;20116;-83
2021/01/05 06:01:04;;;;;;;29.17;13.48;;;;;;;-0.50;90.87;96793.25;5045243;28;20067;-83
2021/01/05 06:03:30;;;;;;;27.27;13.23;;;;;;;-0.58;91.23;96795.97;5050623;28;20029;-82
2021/01/05 06:05:55;;;;;;;30.75;13.98;;;;;;;-0.61;91.54;96804.00;5035633;28;20398;-82
2021/01/05 06:08:22;;;;;;;28.55;12.57;;;;;;;-0.62;91.43;96795.53;5029175;28;20028;-82
2021/01/05 06:10:51;;;;;;;28.30;13.18;;;;;;;-0.55;90.86;96803.25;5069168;28;20028;-82
2021/01/05 06:13:17;;;;;;;27.02;11.93;;;;;;;-0.49;91.26;96809.41;5047243;28;20501;-82
2021/01/05 06:15:43;;;;;;;28.17;13.15;;;;;;;-0.53;91.67;96808.19;5055045;28;20063;-82
2021/01/05 06:18:14;;;;;;;25.98;12.38;;;;;;;-0.58;91.20;96809.53;5055579;28;20032;-82
2021/01/05 06:20:40;;;;;;;30.60;14.60;;;;;;;-0.58;91.36;96804.41;5071908;28;20042;-82
2021/01/05 06:23:06;;;;;;;33.88;16.55;;;;;;;-0.43;90.76;96816.34;5048861;28;20072;-82
2021/01/05 06:25:32;;;;;;;30.92;15.10;;;;;;;-0.44;90.49;96812.22;5054971;28;20109;-82
2021/01/05 06:27:58;;;;;;;27.35;11.73;;;;;;;-0.48;91.41;96803.31;5064613;28;20024;-82
2021/01/05 06:30:24;;;;;;;28.48;12.98;;;;;;;-0.53;91.39;96801.31;5057407;28;20272;-82
2021/01/05 06:32:53;;;;;;;28.63;14.18;;;;;;;-0.59;91.72;96802.81;5039138;28;20041;-82
2021/01/05 06:35:20;;;;;;;28.73;12.90;;;;;;;-0.65;91.42;96808.69;5060792;28;20550;-82
2021/01/05 06:37:49;;;;;;;27.85;12.45;;;;;;;-0.67;91.37;96813.19;5069342;28;20024;-83
2021/01/05 06:40:15;;;;;;;28.98;12.75;;;;;;;-0.59;91.49;96813.03;5066109;28;20035;-82
2021/01/05 06:42:41;;;;;;;22.23;12.18;;;;;;;-0.58;91.29;96811.31;5055049;28;20028;-82
2021/01/05 06:45:08;;;;;;;30.17;13.40;;;;;;;-0.57;91.41;96813.69;5055468;28;20423;-82
2021/01/05 06:47:34;;;;;;;30.65;12.27;;;;;;;-0.58;91.00;96817.19;5054266;28;20484;-82
2021/01/05 06:50:00;;;;;;;29.38;11.77;;;;;;;-0.65;91.82;96816.34;5031149;28;20025;-82
2021/01/05 06:52:25;;;;;;;25.60;11.73;;;;;;;-0.61;91.83;96814.22;5036019;28;20386;-82
2021/01/05 06:54:51;;;;;;;29.98;12.27;;;;;;;-0.57;91.50;96821.34;5059762;28;20062;-82
2021/01/05 06:57:18;;;;;;;25.02;12.15;;;;;;;-0.63;91.20;96819.50;5063662;28;20028;-81
2021/01/05 06:59:44;;;;;;;28.80;12.98;;;;;;;-0.59;91.49;96822.50;5042865;28;20430;-82
2021/01/05 07:02:09;;;;;;;30.55;13.30;;;;;;;-0.55;91.71;96836.47;5029508;28;20099;-82
2021/01/05 07:04:35;;;;;;;30.90;13.70;;;;;;;-0.53;91.70;96823.53;5041748;28;20043;-81
2021/01/05 07:07:03;;;;;;;29.30;13.30;;;;;;;-0.59;91.62;96828.38;5059755;28;20036;-82
2021/01/05 07:09:30;;;;;;;26.00;12.75;;;;;;;-0.67;92.10;96832.81;5051598;28;20351;-82
2021/01/05 07:11:56;;;;;;;26.30;12.18;;;;;;;-0.70;92.21;96831.44;5058933;28;20115;-82
2021/01/05 07:14:23;;;;;;;27.58;12.30;;;;;;;-0.63;92.00;96839.97;5058650;28;20115;-82
2021/01/05 07:16:51;;;;;;;24.52;12.13;;;;;;;-0.50;92.11;96841.06;5039229;28;20056;-83
2021/01/05 07:19:16;;;;;;;26.23;12.75;;;;;;;-0.47;91.79;96838.16;5040926;28;20055;-83
2021/01/05 07:21:42;;;;;;;28.23;13.00;;;;;;;-0.63;91.70;96839.19;5071873;28;20040;-82
2021/01/05 07:24:08;;;;;;;30.70;13.07;;;;;;;-0.57;91.76;96833.31;5044557;28;20035;-82
2021/01/05 07:26:35;;;;;;;28.52;12.48;;;;;;;-0.56;91.63;96842.59;5063806;28;20056;-83
2021/01/05 07:29:02;;;;;;;26.30;11.98;;;;;;;-0.59;91.94;96838.63;5028948;28;20446;-82
2021/01/05 07:31:28;;;;;;;28.25;13.02;;;;;;;-0.55;92.05;96833.94;5051210;28;20029;-82
2021/01/05 07:33:54;;;;;;;30.70;12.75;;;;;;;-0.61;91.82;96832.91;5071401;28;20093;-83
2021/01/05 07:36:26;;;;;;;27.40;12.07;;;;;;;-0.61;91.86;96845.69;5082133;28;20506;-82
2021/01/05 07:38:51;;;;;;;30.15;13.60;;;;;;;-0.61;91.82;96842.34;5038391;28;20025;-82
2021/01/05 07:41:17;;;;;;;27.67;12.75;;;;;;;-0.61;92.19;96837.22;5037528;28;20085;-82
2021/01/05 07:43:44;;;;;;;24.42;11.77;;;;;;;-0.60;91.87;96837.06;5059310;28;20557;-81
2021/01/05 07:46:09;;;;;;;31.88;14.38;;;;;;;-0.63;91.58;96834.06;5052534;28;20091;-82
2021/01/05 07:48:35;;;;;;;31.67;16.10;;;;;;;-0.58;91.88;96832.53;5071361;28;20036;-83
2021/01/05 07:51:02;;;;;;;32.15;14.93;;;;;;;-0.62;92.39;96841.56;5071544;28;20028;-82
2021/01/05 07:53:28;;;;;;;27.30;12.40;;;;;;;-0.65;92.05;96841.91;5051405;28;20279;-81
2021/01/05 07:55:54;;;;;;;28.85;12.93;;;;;;;-0.61;91.91;96842.34;5071308;28;20039;-82
2021/01/05 07:58:19;;;;;;;31.17;13.63;;;;;;;-0.53;91.78;96843.97;5042810;28;20041;-82
2021/01/05 08:00:44;;;;;;;30.08;14.60;;;;;;;-0.51;91.68;96839.50;5045952;28;20039;-82
2021/01/05 08:03:10;;;;;;;27.02;13.43;;;;;;;-0.60;91.51;96849.84;5059241;28;20489;-82
2021/01/05 08:05:36;;;;;;;23.08;11.85;;;;;;;-0.53;91.46;96856.75;5052502;28;20052;-82
2021/01/05 08:08:03;;;;;;;24.63;12.05;;;;;;;-0.60;91.81;96854.94;5084849;28;20145;-82
2021/01/05 08:10:33;;;;;;;25.23;11.40;;;;;;;-0.61;92.02;96853.34;5068862;28;20069;-82
2021/01/05 08:13:01;;;;;;;27.85;12.30;;;;;;;-0.51;91.75;96858.19;5071107;28;20027;-82
2021/01/05 08:15:31;;;;;;;31.85;13.45;;;;;;;-0.48;91.88;96862.13;5060969;28;20503;-82
2021/01/05 08:17:57;;;;;;;35.97;21.17;;;;;;;-0.60;91.63;96854.94;5041832;28;20042;-82
2021/01/05 08:20:25;;;;;;;23.65;11.25;;;;;;;-0.60;92.27;96857.50;5060211;28;20051;-82
2021/01/05 08:22:51;;;;;;;27.85;12.85;;;;;;;-0.50;92.00;96852.06;5036252;28;20082;-82
2021/01/05 08:25:18;;;;;;;27.05;12.45;;;;;;;-0.55;91.49;96851.03;5054348;28;20028;-82
2021/01/05 08:27:48;;;;;;;23.48;11.75;;;;;;;-0.57;92.10;96857.16;5054304;28;20027;-82
2021/01/05 08:30:16;;;;;;;26.60;11.63;;;;;;;-0.52;91.47;96859.13;5036567;28;20037;-82
2021/01/05 08:32:42;;;;;;;25.35;14.50;;;;;;;-0.55;91.95;96859.50;5068758;28;20071;-82
2021/01/05 08:35:09;;;;;;;22.25;10.88;;;;;;;-0.60;91.86;96860.06;5058452;28;20036;-82
2021/01/05 08:37:39;;;;;;;20.50;10.88;;;;;;;-0.65;92.18;96857.25;5050526;28;20028;-82
2021/01/05 08:40:09;;;;;;;25.23;12.45;;;;;;;-0.53;92.09;96856.75;5057467;28;20039;-82
2021/01/05 08:42:35;;;;;;;22.80;10.43;;;;;;;-0.57;91.94;96848.66;5024536;28;20028;-82
2021/01/05 08:45:00;;;;;;;25.15;13.05;;;;;;;-0.63;92.07;96850.19;5042360;28;20028;-83
2021/01/05 08:47:26;;;;;;;24.42;11.52;;;;;;;-0.72;92.23;96851.28;5025474;28;20043;-81
2021/01/05 08:49:52;;;;;;;23.27;11.23;;;;;;;-0.61;91.90;96850.00;5041809;28;20497;-83
2021/01/05 08:52:19;;;;;;;22.05;11.70;;;;;;;-0.69;92.20;96850.13;5042809;28;20060;-82
2021/01/05 08:54:45;;;;;;;23.80;10.48;;;;;;;-0.65;92.03;96854.69;5053305;28;20029;-83
2021/01/05 08:57:15;;;;;;;29.50;15.73;;;;;;;-0.67;92.27;96854.09;5044747;28;20111;-82
2021/01/05 08:59:50;;;;;;;30.30;13.40;;;;;;;-0.76;92.64;96844.94;5045031;28;20033;-82
2021/01/05 09:02:16;;;;;;;;;;;;;;;-0.77;92.02;96848.47;5046575;28;20027;-83
2021/01/05 09:04:42;;;;;;;21.52;11.00;;;;;;;-0.67;92.72;96845.59;5060706;28;20291;-83
2021/01/05 09:07:08;;;;;;;26.05;10.57;;;;;;;-0.57;92.29;96853.78;5051627;28;20033;-83
2021/01/05 09:09:34;;;;;;;27.90;12.23;;;;;;;-0.51;91.89;96853.06;5056372;28;20033;-82
2021/01/05 09:12:00;;;;;;;24.35;11.25;;;;;;;-0.51;91.82;96853.06;5033946;28;20021;-82
2021/01/05 09:14:26;;;;;;;23.15;10.98;;;;;;;-0.49;92.08;96861.34;5034075;28;20622;-82
2021/01/05 09:16:56;;;;;;;24.10;11.10;;;;;;;-0.59;91.51;96864.19;5049733;28;20036;-83
2021/01/05 09:19:22;;;;;;;23.77;11.27;;;;;;;-0.58;92.21;96857.31;5053399;28;20029;-82
2021/01/05 09:21:48;;;;;;;23.95;11.32;;;;;;;-0.48;91.68;96869.78;5038412;28;20085;-82
2021/01/05 09:24:13;;;;;;;29.15;12.55;;;;;;;-0.41;91.57;96863.00;5039950;28;20082;-81
2021/01/05 09:26:41;;;;;;;22.48;11.90;;;;;;;-0.46;91.38;96855.09;5057859;28;20040;-81
2021/01/05 09:29:08;;;;;;;22.50;10.75;;;;;;;-0.43;91.66;96852.13;5066896;28;20055;-81
2021/01/05 09:31:40;;;;;;;22.20;11.73;;;;;;;-0.37;91.04;96856.53;5066655;28;20036;-81
2021/01/05 09:34:08;;;;;;;24.63;10.38;;;;;;;-0.23;91.06;96849.78;5050334;28;20029;-81
2021/01/05 09:36:34;;;;;;;23.33;12.32;;;;;;;-0.25;90.63;96859.41;5017699;28;20054;-80
2021/01/05 09:39:03;;;;;;;20.58;10.77;;;;;;;-0.25;91.06;96854.28;5063892;28;20216;-81
2021/01/05 09:41:47;;;;;;;18.90;9.07;;;;;;;-0.24;90.13;96856.66;5047026;28;20087;-81
2021/01/05 09:44:14;;;;;;;20.92;10.07;;;;;;;-0.22;90.45;96854.72;5057925;28;20039;-81
2021/01/05 09:46:40;;;;;;;22.23;10.45;;;;;;;-0.29;90.89;96856.44;5056649;28;20404;-81
2021/01/05 09:49:15;;;;;;;24.92;12.98;;;;;;;-0.40;91.99;96854.34;5042327;28;20111;-82
2021/01/05 09:51:40;;;;;;;23.95;11.57;;;;;;;-0.40;91.43;96844.09;5035231;28;20029;-81
2021/01/05 09:54:07;;;;;;;22.45;11.30;;;;;;;-0.43;91.84;96849.59;5069688;28;20116;-81
2021/01/05 09:56:32;;;;;;;22.83;11.35;;;;;;;-0.34;91.46;96852.81;5051292;28;20119;-81
2021/01/05 09:58:58;;;;;;;24.45;11.57;;;;;;;-0.29;92.08;96840.25;5057882;28;20091;-81
2021/01/05 10:01:29;;;;;;;25.33;11.82;;;;;;;-0.28;91.89;96839.31;5068559;28;20037;-81
2021/01/05 10:03:58;;;;;;;21.95;11.70;;;;;;;-0.22;90.99;96841.13;5038758;28;20033;-81
2021/01/05 10:06:28;;;;;;;22.98;11.20;;;;;;;-0.29;91.59;96846.19;5032939;28;20039;-81
2021/01/05 10:08:54;;;;;;;22.65;11.93;;;;;;;-0.22;91.83;96847.03;5052244;28;20064;-81
2021/01/05 10:11:20;;;;;;;25.35;12.23;;;;;;;-0.33;91.53;96844.16;5037760;28;20471;-81
2021/01/05 10:13:46;;;;;;;24.75;12.43;;;;;;;-0.31;91.77;96849.91;5040790;28;20124;-81
2021/01/05 10:16:12;;;;;;;27.90;12.60;;;;;;;-0.30;92.09;96844.59;5043005;28;20475;-81
2021/01/05 10:18:38;;;;;;;28.67;12.77;;;;;;;-0.30;92.44;96834.38;5037035;28;20068;-81
2021/01/05 10:21:04;;;;;;;30.15;13.38;;;;;;;-0.36;91.95;96839.41;5024128;28;20025;-82
2021/01/05 10:23:29;;;;;;;25.45;13.48;;;;;;;-0.34;92.42;96838.28;5029869;28;20047;-81
2021/01/05 10:25:55;;;;;;;28.70;12.88;;;;;;;-0.29;92.48;96838.50;5019883;28;20128;-81
2021/01/05 10:28:21;;;;;;;33.10;13.48;;;;;;;-0.29;92.44;96838.50;5027877;28;20471;-81
2021/01/05 10:30:46;;;;;;;34.35;13.82;;;;;;;-0.32;92.65;96838.88;5043175;28;20071;-81
2021/01/05 10:33:11;;;;;;;32.22;13.93;;;;;;;-0.36;92.22;96837.66;5007959;28;20032;-81
2021/01/05 10:35:37;;;;;;;27.98;13.32;;;;;;;-0.29;92.43;96842.81;5040370;28;20029;-82
2021/01/05 10:38:03;;;;;;;33.72;15.07;;;;;;;-0.34;92.14;96832.34;5021325;28;20780;-80
2021/01/05 10:40:29;;;;;;;33.33;14.65;;;;;;;-0.35;92.81;96841.78;5037694;28;20471;-81
2021/01/05 10:42:54;;;;;;;36.55;14.80;;;;;;;-0.32;92.89;96836.31;5038787;28;20066;-81
2021/01/05 10:45:23;;;;;;;39.72;17.15;;;;;;;-0.38;92.51;96840.41;5057244;28;20371;-80
2021/01/05 10:47:49;;;;;;;33.17;16.85;;;;;;;-0.27;92.71;96848.56;5047583;28;20036;-81
2021/01/05 10:50:20;;;;;;;37.60;15.57;;;;;;;-0.23;92.33;96834.44;5044846;28;20364;-81
2021/01/05 10:52:46;;;;;;;32.40;14.38;;;;;;;-0.24;91.86;96841.31;5019636;28;20760;-81
2021/01/05 10:55:13;;;;;;;35.20;15.18;;;;;;;-0.22;92.12;96839.34;5046227;28;20419;-81
2021/01/05 10:57:38;;;;;;;35.70;15.43;;;;;;;-0.19;92.28;96838.19;5032046;28;20074;-81
2021/01/05 11:00:04;;;;;;;34.65;15.98;;;;;;;-0.18;92.42;96836.44;5033564;28;20542;-81
2021/01/05 11:02:30;;;;;;;31.90;13.63;;;;;;;-0.12;91.98;96845.91;5033542;28;20032;-81
2021/01/05 11:04:56;;;;;;;34.38;14.63;;;;;;;-0.09;91.80;96838.66;5026122;28;20550;-81
2021/01/05 11:07:22;;;;;;;31.75;15.00;;;;;;;-0.12;92.07;96835.69;5045641;28;20121;-81
2021/01/05 11:09:48;;;;;;;33.75;15.95;;;;;;;-0.02;92.36;96844.66;5041657;28;20037;-81
2021/01/05 11:12:20;;;;;;;32.28;14.45;;;;;;;-0.06;91.68;96834.97;5039620;28;20096;-81
2021/01/05 11:14:46;;;;;;;31.13;14.98;;;;;;;-0.02;91.92;96836.16;5039535;28;20028;-81
2021/01/05 11:17:12;;;;;;;30.70;15.32;;;;;;;-0.11;92.18;96834.72;5053611;28;20471;-81
2021/01/05 11:19:39;;;;;;;29.45;13.68;;;;;;;-0.06;91.51;96842.63;5024229;28;20037;-81
2021/01/05 11:22:07;;;;;;;28.25;14.07;;;;;;;0.06;91.09;96840.38;5054384;28;20571;-81
2021/01/05 11:24:37;;;;;;;30.52;14.30;;;;;;;-0.04;91.80;96846.59;5033824;28;20408;-81
2021/01/05 11:27:04;;;;;;;30.63;14.00;;;;;;;0.02;91.90;96837.38;5025675;28;20387;-81
2021/01/05 11:29:29;;;;;;;32.33;15.23;;;;;;;-0.03;91.72;96829.47;5009214;28;20700;-81